Time;durP1;ratioP1;P1;durP2;ratioP2;P2;SDS_P1;SDS_P2;PMS_P1;PMS_P2;Temp;Humidity;BMP_temperature;BMP_pressure;BME280_temperature;BME280_humidity;BME280_pressure;Samples;Min_cycle;Max_cycle;Signal;HPM_P1;HPM_P2
2023/11/04 00:02:12;;;;;;;4.90;1.50;;;;;;;6.28;100.00;98281.97;7386656;19;20431;-42
2023/11/04 00:04:44;;;;;;;6.50;1.37;;;;;;;6.29;100.00;98279.44;7366797;19;20865;-39
2023/11/04 00:07:15;;;;;;;3.57;0.90;;;;;;;6.29;100.00;98287.13;7390504;19;20394;-41
2023/11/04 00:09:45;;;;;;;8.07;1.80;;;;;;;6.30;100.00;98280.31;7364309;19;20495;-40
2023/11/04 00:12:21;;;;;;;8.70;1.50;;;;;;;6.33;100.00;98280.38;7386094;19;20399;-40
2023/11/04 00:14:51;;;;;;;7.97;1.73;;;;;;;6.32;100.00;98292.28;7364086;19;20448;-41
2023/11/04 00:17:20;;;;;;;3.47;1.20;;;;;;;6.34;100.00;98288.09;7387866;19;20422;-40
2023/11/04 00:19:53;;;;;;;7.50;1.50;;;;;;;6.36;100.00;98288.09;7363646;19;20491;-39
2023/11/04 00:22:23;;;;;;;13.30;1.70;;;;;;;6.38;100.00;98295.81;7384492;19;20946;-44
2023/11/04 00:24:53;;;;;;;6.03;1.47;;;;;;;6.38;100.00;98288.13;7364061;19;20443;-40
2023/11/04 00:27:23;;;;;;;6.90;2.00;;;;;;;6.39;100.00;98289.84;7385508;19;20403;-40
2023/11/04 00:29:53;;;;;;;18.70;1.77;;;;;;;6.39;100.00;98292.41;7363879;19;20465;-39
2023/11/04 00:32:23;;;;;;;5.90;1.40;;;;;;;6.38;100.00;98290.69;7387730;19;20399;-43
2023/11/04 00:34:55;;;;;;;8.63;2.23;;;;;;;6.32;100.00;98288.88;7365128;19;20808;-40
2023/11/04 00:37:25;;;;;;;5.83;1.37;;;;;;;6.31;100.00;98282.03;7395036;19;20451;-40
2023/11/04 00:39:55;;;;;;;10.40;2.23;;;;;;;6.28;100.00;98287.97;7371439;19;20396;-40
2023/11/04 00:42:24;;;;;;;8.80;1.93;;;;;;;6.21;100.00;98296.38;7394447;19;20367;-40
2023/11/04 00:44:55;;;;;;;8.47;1.90;;;;;;;6.19;100.00;98286.09;7369415;19;20466;-40
2023/11/04 00:47:25;;;;;;;10.00;1.80;;;;;;;6.13;100.00;98292.78;7390749;19;20383;-39
2023/11/04 00:49:57;;;;;;;10.13;2.00;;;;;;;6.06;100.00;98297.75;7367022;19;20934;-40
2023/11/04 00:52:43;;;;;;;9.40;1.60;;;;;;;6.02;100.00;98306.22;7390065;19;20425;-40
2023/11/04 00:55:13;;;;;;;5.33;1.67;;;;;;;6.01;100.00;98304.44;7368634;19;20388;-40
2023/11/04 00:57:42;;;;;;;9.07;2.73;;;;;;;6.00;100.00;98291.63;7392033;19;20412;-39
2023/11/04 01:00:14;;;;;;;10.20;1.60;;;;;;;5.95;100.00;98289.00;7369064;19;20394;-40
2023/11/04 01:02:44;;;;;;;7.80;2.30;;;;;;;5.93;100.00;98293.19;7390153;19;20935;-39
2023/11/04 01:05:17;;;;;;;3.87;1.87;;;;;;;5.90;100.00;98294.00;7367483;19;20438;-39
2023/11/04 01:07:47;;;;;;;5.87;1.57;;;;;;;5.86;100.00;98287.09;7388035;19;20760;-39
2023/11/04 01:10:17;;;;;;;6.50;1.93;;;;;;;5.85;100.00;98287.91;7364815;19;20407;-41
2023/11/04 01:12:47;;;;;;;10.23;1.67;;;;;;;5.83;100.00;98288.72;7389460;19;20403;-40
2023/11/04 01:15:16;;;;;;;5.10;2.10;;;;;;;5.78;100.00;98286.06;7368917;19;20515;-40
2023/11/04 01:17:46;;;;;;;7.67;1.50;;;;;;;5.75;100.00;98286.84;7387334;19;20970;-40
2023/11/04 01:20:19;;;;;;;8.10;2.20;;;;;;;5.71;100.00;98279.97;7368361;19;20418;-40
2023/11/04 01:22:48;;;;;;;5.20;2.07;;;;;;;5.67;100.00;98273.03;7393577;19;20395;-40
2023/11/04 01:25:18;;;;;;;5.40;1.53;;;;;;;5.63;100.00;98273.78;7367309;19;20466;-41
2023/11/04 01:27:48;;;;;;;6.70;1.90;;;;;;;5.66;100.00;98273.88;7389282;19;20474;-40
2023/11/04 01:30:18;;;;;;;13.23;2.17;;;;;;;5.63;100.00;98271.22;7371046;19;21116;-40
2023/11/04 01:32:47;;;;;;;4.07;1.70;;;;;;;5.62;100.00;98275.50;7387359;19;20400;-41
2023/11/04 01:35:20;;;;;;;9.13;2.40;;;;;;;5.65;100.00;98269.59;7366777;19;20391;-42
2023/11/04 01:37:49;;;;;;;6.83;2.03;;;;;;;5.58;100.00;98267.72;7393011;19;20411;-38
2023/11/04 01:40:19;;;;;;;6.00;1.37;;;;;;;5.60;100.00;98263.50;7366291;19;20395;-40
2023/11/04 01:42:48;;;;;;;8.60;1.77;;;;;;;5.61;100.00;98258.44;7389880;19;20398;-41
2023/11/04 01:45:18;;;;;;;13.37;1.90;;;;;;;5.60;100.00;98260.94;7366591;19;20619;-40
2023/11/04 01:47:50;;;;;;;5.77;1.97;;;;;;;5.64;100.00;98261.03;7393254;19;20387;-40
2023/11/04 01:50:23;;;;;;;10.50;1.97;;;;;;;5.65;100.00;98265.31;7374813;19;20403;-40
2023/11/04 01:52:52;;;;;;;12.57;2.67;;;;;;;5.66;100.00;98256.81;7393739;19;20391;-40
2023/11/04 01:55:22;;;;;;;6.80;2.30;;;;;;;5.69;100.00;98266.25;7376241;19;20793;-40
2023/11/04 01:57:52;;;;;;;10.27;1.90;;;;;;;5.72;100.00;98263.78;7396583;19;20404;-40
2023/11/04 02:00:22;;;;;;;10.77;2.20;;;;;;;5.74;100.00;98268.94;7375710;19;20423;-41
2023/11/04 02:02:52;;;;;;;4.40;1.90;;;;;;;5.77;100.00;98263.84;7396435;19;20392;-39
2023/11/04 02:05:24;;;;;;;7.10;2.10;;;;;;;5.78;100.00;98270.69;7372521;19;20395;-39
2023/11/04 02:07:55;;;;;;;6.97;1.53;;;;;;;5.76;100.00;98263.00;7395885;19;20411;-41
2023/11/04 02:10:25;;;;;;;7.80;2.00;;;;;;;5.78;100.00;98265.59;7372398;19;20995;-40
2023/11/04 02:12:55;;;;;;;6.70;2.20;;;;;;;5.73;100.00;98262.06;7395209;19;20963;-41
2023/11/04 02:15:24;;;;;;;9.57;2.20;;;;;;;5.72;100.00;98258.66;7368985;19;20466;-40
2023/11/04 02:17:54;;;;;;;3.63;1.57;;;;;;;5.71;100.00;98262.03;7396660;19;20407;-40
2023/11/04 02:20:27;;;;;;;5.50;2.40;;;;;;;5.68;100.00;98260.28;7375078;19;20506;-40
2023/11/04 02:22:59;;;;;;;4.17;1.90;;;;;;;5.62;100.00;98254.16;7399982;19;20395;-39
2023/11/04 02:25:33;;;;;;;3.57;1.70;;;;;;;5.61;100.00;98257.56;7375767;19;20445;-40
2023/11/04 02:28:03;;;;;;;9.10;2.37;;;;;;;5.61;100.00;98260.97;7395987;19;20399;-40
2023/11/04 02:30:32;;;;;;;6.50;2.33;;;;;;;5.58;100.00;98257.50;7375119;19;20426;-40
2023/11/04 02:33:02;;;;;;;4.80;1.97;;;;;;;5.52;100.00;98253.09;7399525;19;20482;-42
2023/11/04 02:35:32;;;;;;;11.83;2.60;;;;;;;5.52;100.00;98259.09;7374225;19;20443;-39
2023/11/04 02:38:04;;;;;;;7.40;2.10;;;;;;;5.48;100.00;98264.94;7398749;19;20404;-39
2023/11/04 02:40:33;;;;;;;7.77;2.00;;;;;;;5.47;100.00;98255.56;7375294;19;20522;-40
2023/11/04 02:43:03;;;;;;;4.73;2.10;;;;;;;5.49;100.00;98253.03;7396712;19;20983;-41
2023/11/04 02:45:33;;;;;;;5.77;2.37;;;;;;;5.44;100.00;98257.19;7375038;19;20439;-40
2023/11/04 02:48:04;;;;;;;3.93;1.43;;;;;;;5.37;100.00;98258.72;7398333;19;20396;-40
2023/11/04 02:50:33;;;;;;;5.80;2.07;;;;;;;5.37;100.00;98253.63;7376008;19;21077;-39
2023/11/04 02:53:05;;;;;;;7.67;2.00;;;;;;;5.35;100.00;98261.28;7397023;19;20403;-41
2023/11/04 02:55:35;;;;;;;5.90;2.37;;;;;;;5.36;100.00;98268.13;7374912;19;20435;-39
2023/11/04 02:58:04;;;;;;;7.67;2.80;;;;;;;5.36;100.00;98267.22;7398246;19;20414;-41
2023/11/04 03:00:34;;;;;;;9.20;2.30;;;;;;;5.33;100.00;98262.06;7374559;19;20506;-39
2023/11/04 03:03:04;;;;;;;7.40;2.07;;;;;;;5.34;100.00;98259.53;7396371;19;20403;-41
2023/11/04 03:05:33;;;;;;;5.60;1.80;;;;;;;5.31;100.00;98264.59;7374053;19;20448;-42
2023/11/04 03:08:09;;;;;;;4.83;1.90;;;;;;;5.31;100.00;98266.25;7397970;19;20475;-41
2023/11/04 03:10:38;;;;;;;16.50;2.77;;;;;;;5.37;100.00;98263.84;7373690;19;20506;-40
2023/11/04 03:13:08;;;;;;;5.33;2.10;;;;;;;5.32;100.00;98262.91;7392182;19;20419;-40
2023/11/04 03:15:38;;;;;;;6.03;2.40;;;;;;;5.29;100.00;98267.94;7374131;19;20521;-40
2023/11/04 03:18:08;;;;;;;6.60;2.10;;;;;;;5.30;100.00;98261.97;7395672;19;20490;-40
2023/11/04 03:20:38;;;;;;;6.63;1.87;;;;;;;5.29;100.00;98270.47;7375239;19;21191;-40
2023/11/04 03:23:10;;;;;;;4.80;1.80;;;;;;;5.27;100.00;98261.09;7394732;19;20409;-40
2023/11/04 03:25:40;;;;;;;6.23;1.87;;;;;;;5.31;100.00;98261.16;7373977;19;20443;-40
2023/11/04 03:28:10;;;;;;;3.57;1.80;;;;;;;5.29;100.00;98250.03;7393587;19;20413;-40
2023/11/04 03:30:39;;;;;;;4.93;2.10;;;;;;;5.33;100.00;98255.25;7375366;19;20793;-40
2023/11/04 03:33:09;;;;;;;6.80;2.20;;;;;;;5.32;100.00;98253.53;7396388;19;20403;-41
2023/11/04 03:35:39;;;;;;;6.60;1.83;;;;;;;5.29;100.00;98255.16;7373548;19;20963;-44
2023/11/04 03:38:12;;;;;;;8.27;2.37;;;;;;;5.27;100.00;98243.19;7393651;19;20406;-39
2023/11/04 03:40:41;;;;;;;4.27;1.47;;;;;;;5.27;100.00;98247.44;7374827;19;20431;-39
2023/11/04 03:43:12;;;;;;;5.00;2.00;;;;;;;5.24;100.00;98250.78;7394260;19;20389;-41
2023/11/04 03:45:41;;;;;;;5.63;2.00;;;;;;;5.23;100.00;98251.63;7373626;19;20451;-40
2023/11/04 03:48:11;;;;;;;5.63;1.80;;;;;;;5.26;100.00;98241.47;7393379;19;20403;-40
2023/11/04 03:50:40;;;;;;;5.00;1.70;;;;;;;5.25;100.00;98239.75;7374614;19;20451;-41
2023/11/04 03:53:13;;;;;;;6.10;1.73;;;;;;;5.23;100.00;98241.38;7393455;19;20418;-40
2023/11/04 03:55:42;;;;;;;4.77;1.40;;;;;;;5.27;100.00;98238.06;7373380;19;20498;-40
2023/11/04 03:58:12;;;;;;;6.03;2.27;;;;;;;5.25;100.00;98234.63;7394665;19;20763;-40
2023/11/04 04:00:41;;;;;;;8.03;2.70;;;;;;;5.19;100.00;98239.59;7372487;19;20819;-39
2023/11/04 04:03:11;;;;;;;6.33;2.27;;;;;;;5.26;100.00;98228.69;7393192;19;20391;-41
2023/11/04 04:05:41;;;;;;;5.77;1.70;;;;;;;5.22;100.00;98226.00;7373063;19;20443;-40
2023/11/04 04:08:13;;;;;;;8.77;1.30;;;;;;;5.24;100.00;98230.31;7390876;19;20864;-40
2023/11/04 04:10:43;;;;;;;10.37;2.17;;;;;;;5.23;100.00;98235.44;7370854;19;20415;-39
2023/11/04 04:13:12;;;;;;;7.07;1.73;;;;;;;5.23;100.00;98238.81;7393206;19;20419;-40
2023/11/04 04:15:42;;;;;;;7.13;2.00;;;;;;;5.28;100.00;98238.94;7372524;19;20438;-41
2023/11/04 04:18:11;;;;;;;3.20;1.20;;;;;;;5.23;100.00;98240.53;7394554;19;20396;-40
2023/11/04 04:20:41;;;;;;;2.63;1.50;;;;;;;5.17;100.00;98225.06;7373147;19;20904;-40
2023/11/04 04:23:13;;;;;;;4.10;1.63;;;;;;;5.17;100.00;98228.47;7394894;19;20392;-41
2023/11/04 04:25:43;;;;;;;7.63;2.60;;;;;;;5.18;100.00;98240.41;7371660;19;20431;-42
2023/11/04 04:28:12;;;;;;;6.53;1.97;;;;;;;5.10;100.00;98224.03;7395541;19;20407;-42
2023/11/04 04:30:43;;;;;;;5.77;1.77;;;;;;;5.02;100.00;98226.41;7372328;19;20427;-41
2023/11/04 04:33:13;;;;;;;8.03;2.37;;;;;;;5.04;100.00;98217.09;7393462;19;20751;-40
2023/11/04 04:35:43;;;;;;;7.30;2.33;;;;;;;5.02;100.00;98215.34;7372723;19;20446;-39
2023/11/04 04:38:15;;;;;;;9.50;2.10;;;;;;;5.02;100.00;98212.78;7391501;19;20474;-40
2023/11/04 04:40:44;;;;;;;9.43;2.00;;;;;;;4.93;100.00;98205.75;7371740;19;20423;-44
2023/11/04 04:43:14;;;;;;;3.03;1.80;;;;;;;4.91;100.00;98200.59;7394460;19;20399;-40
2023/11/04 04:45:44;;;;;;;4.70;2.20;;;;;;;4.86;100.00;98209.84;7371523;19;20510;-39
2023/11/04 04:48:13;;;;;;;4.73;1.57;;;;;;;4.87;100.00;98203.91;7393298;19;20736;-40
2023/11/04 04:50:43;;;;;;;5.40;2.03;;;;;;;4.85;100.00;98200.47;7371323;19;20426;-40
2023/11/04 04:53:16;;;;;;;11.03;3.40;;;;;;;4.83;100.00;98197.00;7392029;19;20487;-40
2023/11/04 04:55:45;;;;;;;6.30;1.93;;;;;;;4.73;100.00;98193.38;7371453;19;20439;-39
2023/11/04 04:58:15;;;;;;;8.40;2.20;;;;;;;4.72;100.00;98197.63;7391702;19;20403;-39
2023/11/04 05:00:45;;;;;;;10.90;2.10;;;;;;;4.72;100.00;98189.94;7370645;19;20431;-42
2023/11/04 05:03:14;;;;;;;5.83;1.60;;;;;;;4.73;100.00;98188.28;7392107;19;20403;-39
2023/11/04 05:05:44;;;;;;;5.67;2.13;;;;;;;4.63;100.00;98187.19;7371418;19;20446;-40
2023/11/04 05:08:16;;;;;;;12.40;2.20;;;;;;;4.54;100.00;98186.94;7391245;19;20393;-39
2023/11/04 05:10:46;;;;;;;3.40;1.43;;;;;;;4.54;100.00;98185.25;7368836;19;20423;-40
2023/11/04 05:13:15;;;;;;;6.90;1.70;;;;;;;4.51;100.00;98181.78;7393286;19;21050;-41
2023/11/04 05:15:45;;;;;;;6.90;1.73;;;;;;;4.46;100.00;98177.41;7369573;19;20438;-39
2023/11/04 05:18:15;;;;;;;5.70;1.90;;;;;;;4.45;100.00;98178.25;7391159;19;20408;-39
2023/11/04 05:20:45;;;;;;;9.83;2.07;;;;;;;4.43;100.00;98174.78;7372537;19;20427;-41
2023/11/04 05:23:18;;;;;;;7.60;1.70;;;;;;;4.40;100.00;98164.47;7400967;19;20401;-39
2023/11/04 05:25:48;;;;;;;5.10;1.80;;;;;;;4.42;100.00;98161.97;7377427;19;20410;-40
2023/11/04 05:28:18;;;;;;;5.90;1.80;;;;;;;4.37;100.00;98161.00;7400157;19;20382;-40
2023/11/04 05:30:48;;;;;;;4.30;1.90;;;;;;;4.34;100.00;98161.78;7378197;19;20451;-41
2023/11/04 05:33:17;;;;;;;5.50;1.60;;;;;;;4.35;100.00;98160.94;7400697;19;20435;-40
2023/11/04 05:35:47;;;;;;;2.83;1.50;;;;;;;4.31;100.00;98159.16;7376390;19;20504;-41
2023/11/04 05:38:19;;;;;;;6.07;1.97;;;;;;;4.29;100.00;98158.25;7401113;19;20418;-40
2023/11/04 05:40:50;;;;;;;3.70;1.70;;;;;;;4.30;100.00;98157.41;7378093;19;20419;-39
2023/11/04 05:43:20;;;;;;;5.00;1.50;;;;;;;4.28;100.00;98151.41;7401518;19;20404;-40
2023/11/04 05:45:49;;;;;;;4.63;1.47;;;;;;;4.24;100.00;98147.91;7376364;19;20502;-42
2023/11/04 05:48:20;;;;;;;9.27;2.40;;;;;;;4.18;100.00;98147.75;7399857;19;20403;-39
2023/11/04 05:50:50;;;;;;;8.80;1.53;;;;;;;4.18;100.00;98140.97;7377111;19;20415;-39
2023/11/04 05:53:22;;;;;;;4.40;1.57;;;;;;;4.12;100.00;98147.59;7397272;19;20765;-41
2023/11/04 05:55:52;;;;;;;16.17;2.00;;;;;;;4.09;100.00;98142.44;7375640;19;21382;-40
2023/11/04 05:58:22;;;;;;;6.97;1.73;;;;;;;4.11;100.00;98136.53;7398979;19;21010;-40
2023/11/04 06:00:52;;;;;;;4.20;1.90;;;;;;;4.09;100.00;98143.28;7377466;19;20767;-40
2023/11/04 06:03:21;;;;;;;5.93;1.77;;;;;;;4.08;100.00;98144.13;7398777;19;20747;-39
2023/11/04 06:05:51;;;;;;;5.10;1.63;;;;;;;4.05;100.00;98136.38;7376758;19;20857;-39
2023/11/04 06:08:24;;;;;;;7.50;2.10;;;;;;;4.03;100.00;98141.44;7397264;19;20775;-40
2023/11/04 06:10:54;;;;;;;4.73;1.73;;;;;;;4.03;100.00;98135.47;7375855;19;20426;-39
2023/11/04 06:13:23;;;;;;;4.23;1.70;;;;;;;3.98;100.00;98130.25;7397202;19;20392;-39
2023/11/04 06:15:53;;;;;;;7.40;2.03;;;;;;;4.00;100.00;98127.75;7375102;19;20498;-40
2023/11/04 06:18:22;;;;;;;8.57;1.80;;;;;;;3.98;100.00;98129.38;7396096;19;20383;-39
2023/11/04 06:20:52;;;;;;;7.13;1.47;;;;;;;3.94;100.00;98123.34;7372392;19;20415;-40
2023/11/04 06:23:24;;;;;;;4.03;1.43;;;;;;;3.89;100.00;98125.78;7386362;19;20505;-40
2023/11/04 06:25:54;;;;;;;3.30;1.40;;;;;;;3.83;100.00;98115.41;7369318;19;20423;-39
2023/11/04 06:28:24;;;;;;;5.83;1.60;;;;;;;3.87;100.00;98117.22;7392196;19;20826;-40
2023/11/04 06:30:53;;;;;;;3.97;1.67;;;;;;;3.83;100.00;98119.63;7368689;19;20993;-40
2023/11/04 06:33:23;;;;;;;8.03;1.80;;;;;;;3.87;100.00;98117.22;7388367;19;20418;-39
2023/11/04 06:35:53;;;;;;;5.80;1.47;;;;;;;3.95;100.00;98114.00;7368779;19;20431;-40
2023/11/04 06:38:28;;;;;;;3.60;1.40;;;;;;;4.00;100.00;98100.53;7392562;19;20412;-39
2023/11/04 06:40:57;;;;;;;4.53;1.30;;;;;;;4.08;100.00;98105.84;7368343;19;20441;-39
2023/11/04 06:43:30;;;;;;;3.80;1.50;;;;;;;4.15;100.00;98106.88;7390987;19;20483;-39
2023/11/04 06:46:00;;;;;;;7.97;2.00;;;;;;;4.15;100.00;98106.88;7369187;19;20419;-43
2023/11/04 06:48:30;;;;;;;6.13;2.20;;;;;;;4.24;100.00;98103.66;7388629;19;20404;-40
2023/11/04 06:50:59;;;;;;;7.60;1.33;;;;;;;4.22;100.00;98102.75;7368570;19;20439;-39
2023/11/04 06:53:32;;;;;;;7.80;2.37;;;;;;;4.22;100.00;98108.75;7392256;19;20398;-39
2023/11/04 06:56:02;;;;;;;11.60;2.10;;;;;;;4.25;100.00;98102.84;7368983;19;20418;-40
2023/11/04 06:58:32;;;;;;;10.17;3.10;;;;;;;4.26;100.00;98100.31;7388794;19;20845;-40
2023/11/04 07:01:02;;;;;;;6.63;2.73;;;;;;;4.29;100.00;98097.84;7367785;19;20431;-40
2023/11/04 07:03:32;;;;;;;20.87;5.10;;;;;;;4.29;100.00;98099.53;7389108;19;20490;-44
2023/11/04 07:06:02;;;;;;;8.90;2.50;;;;;;;4.30;100.00;98094.47;7367847;19;20458;-40
2023/11/04 07:08:34;;;;;;;8.13;1.63;;;;;;;4.31;100.00;98105.56;7390325;19;20394;-41
2023/11/04 07:11:04;;;;;;;6.47;1.80;;;;;;;4.37;100.00;98108.25;7363694;19;20436;-39
2023/11/04 07:13:34;;;;;;;8.90;3.57;;;;;;;4.56;100.00;98101.03;7387632;19;21035;-40
2023/11/04 07:16:04;;;;;;;4.10;1.17;;;;;;;4.59;100.00;98098.53;7364978;19;20431;-39
2023/11/04 07:18:34;;;;;;;10.47;2.00;;;;;;;4.66;100.00;98100.41;7386414;19;20817;-39
2023/11/04 07:21:04;;;;;;;4.40;1.70;;;;;;;4.55;100.00;98102.72;7366112;19;20443;-42
2023/11/04 07:23:36;;;;;;;10.30;3.33;;;;;;;4.64;100.00;98102.06;7388798;19;20779;-42
2023/11/04 07:26:07;;;;;;;6.87;2.70;;;;;;;4.60;100.00;98102.81;7365210;19;20419;-40
2023/11/04 07:28:37;;;;;;;8.40;3.60;;;;;;;4.62;100.00;98103.72;7385638;19;20396;-42
2023/11/04 07:31:07;;;;;;;4.50;1.50;;;;;;;4.63;100.00;98095.22;7365507;19;20432;-40
2023/11/04 07:33:37;;;;;;;5.40;1.30;;;;;;;4.69;100.00;98095.38;7388674;19;20398;-41
2023/11/04 07:36:08;;;;;;;8.50;1.53;;;;;;;4.77;100.00;98092.13;7364240;19;20419;-44
2023/11/04 07:38:40;;;;;;;7.50;1.70;;;;;;;4.85;100.00;98099.13;7385955;19;20407;-41
2023/11/04 07:41:10;;;;;;;6.90;3.27;;;;;;;4.91;100.00;98095.84;7366046;19;20429;-40
2023/11/04 07:43:40;;;;;;;9.33;1.30;;;;;;;4.97;100.00;98095.97;7387637;19;21054;-44
2023/11/04 07:46:10;;;;;;;4.70;1.87;;;;;;;5.06;100.00;98097.00;7365317;19;20475;-42
2023/11/04 07:48:40;;;;;;;9.63;2.30;;;;;;;5.11;100.00;98092.84;7385580;19;20967;-42
2023/11/04 07:51:11;;;;;;;2.83;1.23;;;;;;;5.21;100.00;98091.34;7364886;19;20423;-39
2023/11/04 07:53:43;;;;;;;6.70;1.60;;;;;;;5.26;100.00;98093.19;7386538;19;21002;-40
2023/11/04 07:56:13;;;;;;;2.73;1.03;;;;;;;5.31;100.00;98098.38;7365495;19;20522;-42
2023/11/04 07:58:43;;;;;;;10.40;2.00;;;;;;;5.39;100.00;98093.44;7385314;19;20410;-40
2023/11/04 08:01:12;;;;;;;4.27;1.10;;;;;;;5.44;100.00;98091.78;7363594;19;20479;-41
2023/11/04 08:03:42;;;;;;;4.60;1.77;;;;;;;5.53;100.00;98096.22;7387742;19;20414;-42
2023/11/04 08:06:12;;;;;;;4.40;1.40;;;;;;;5.57;100.00;98097.16;7364127;19;20426;-45
2023/11/04 08:08:44;;;;;;;3.30;0.80;;;;;;;5.62;100.00;98101.53;7385019;19;20407;-43
2023/11/04 08:11:15;;;;;;;3.53;1.00;;;;;;;5.68;100.00;98096.53;7360982;19;20888;-40
2023/11/04 08:13:45;;;;;;;7.83;1.20;;;;;;;5.71;100.00;98102.53;7386456;19;20407;-40
2023/11/04 08:16:14;;;;;;;2.50;1.27;;;;;;;5.75;100.00;98101.78;7363462;19;20436;-44
2023/11/04 08:18:45;;;;;;;3.00;1.07;;;;;;;5.81;100.00;98101.88;7386627;19;20479;-40
2023/11/04 08:21:16;;;;;;;4.90;1.53;;;;;;;5.85;100.00;98097.69;7365648;19;20849;-41
2023/11/04 08:23:48;;;;;;;3.13;1.00;;;;;;;5.89;100.00;98104.59;7386000;19;20399;-40
2023/11/04 08:26:18;;;;;;;2.30;0.70;;;;;;;5.87;100.00;98106.25;7363164;19;20819;-46
2023/11/04 08:28:51;;;;;;;3.97;1.00;;;;;;;5.93;100.00;98097.00;7385919;19;20416;-43
2023/11/04 08:31:20;;;;;;;3.10;1.10;;;;;;;5.97;100.00;98097.91;7363162;19;20526;-42
2023/11/04 08:33:50;;;;;;;4.53;1.00;;;;;;;6.00;100.00;98102.22;7387348;19;20427;-41
2023/11/04 08:36:20;;;;;;;3.30;1.00;;;;;;;6.08;100.00;98099.00;7362607;19;20450;-40
2023/11/04 08:38:52;;;;;;;10.90;3.20;;;;;;;6.11;100.00;98098.19;7385716;19;21116;-39
2023/11/04 08:41:21;;;;;;;6.70;1.93;;;;;;;6.19;100.00;98088.94;7363445;19;20443;-44
2023/11/04 08:43:51;;;;;;;15.10;3.60;;;;;;;6.24;100.00;98086.44;7381472;19;20431;-40
2023/11/04 08:46:21;;;;;;;9.57;3.23;;;;;;;6.31;100.00;98089.97;7364030;19;20407;-39
2023/11/04 08:48:50;;;;;;;3.07;1.37;;;;;;;6.33;100.00;98081.47;7386143;19;20950;-40
2023/11/04 08:51:21;;;;;;;5.93;1.60;;;;;;;6.40;100.00;98079.00;7365093;19;20467;-39
2023/11/04 08:53:53;;;;;;;5.63;0.97;;;;;;;6.43;100.00;98076.50;7387081;19;20424;-41
2023/11/04 08:56:22;;;;;;;2.70;1.20;;;;;;;6.45;100.00;98085.03;7362605;19;20415;-41
2023/11/04 08:58:53;;;;;;;10.13;2.90;;;;;;;6.56;100.00;98080.94;7386622;19;20400;-40
2023/11/04 09:01:24;;;;;;;2.93;1.00;;;;;;;6.60;100.00;98081.84;7363650;19;20518;-40
2023/11/04 09:03:55;;;;;;;2.33;0.90;;;;;;;6.69;100.00;98076.88;7388072;19;20427;-41
2023/11/04 09:06:33;;;;;;;3.50;1.40;;;;;;;6.76;100.00;98067.56;7365357;19;20521;-39
2023/11/04 09:09:07;;;;;;;4.93;1.17;;;;;;;6.84;100.00;98062.56;7384918;19;20418;-40
2023/11/04 09:11:39;;;;;;;3.10;1.20;;;;;;;6.93;100.00;98077.19;7361494;19;20515;-40
2023/11/04 09:14:09;;;;;;;6.43;2.33;;;;;;;7.02;100.00;98067.06;7385605;19;20449;-40
2023/11/04 09:16:39;;;;;;;3.17;0.97;;;;;;;7.03;100.00;98082.47;7363502;19;20415;-41
2023/11/04 09:19:09;;;;;;;4.80;1.30;;;;;;;7.02;100.00;98083.31;7384545;19;20407;-40
2023/11/04 09:21:39;;;;;;;6.03;1.43;;;;;;;7.09;100.00;98083.41;7363907;19;20503;-41
2023/11/04 09:24:12;;;;;;;7.87;1.90;;;;;;;7.38;100.00;98076.06;7385388;19;20991;-40
2023/11/04 09:26:44;;;;;;;6.27;2.20;;;;;;;7.27;100.00;98087.88;7363070;19;20430;-43
2023/11/04 09:29:14;;;;;;;6.77;2.60;;;;;;;7.30;100.00;98083.66;7387522;19;21019;-41
2023/11/04 09:31:43;;;;;;;3.27;1.03;;;;;;;7.33;100.00;98093.09;7363975;19;20788;-41
2023/11/04 09:34:13;;;;;;;11.07;3.03;;;;;;;7.36;100.00;98087.13;7385543;19;20432;-40
2023/11/04 09:36:43;;;;;;;4.20;1.37;;;;;;;7.43;100.00;98089.81;7362680;19;20502;-40
2023/11/04 09:39:16;;;;;;;3.17;0.90;;;;;;;7.43;100.00;98086.34;7382354;19;20406;-40
2023/11/04 09:41:45;;;;;;;2.60;1.07;;;;;;;7.50;100.00;98089.88;7368250;19;20498;-41
2023/11/04 09:44:15;;;;;;;2.77;0.90;;;;;;;7.59;100.00;98091.69;7388385;19;20423;-42
2023/11/04 09:46:45;;;;;;;11.40;2.70;;;;;;;7.64;100.00;98083.19;7369800;19;20549;-41
2023/11/04 09:49:14;;;;;;;3.77;1.00;;;;;;;7.66;100.00;98084.06;7389717;19;20483;-42
2023/11/04 09:51:44;;;;;;;3.40;1.10;;;;;;;7.66;100.00;98086.63;7369738;19;20437;-42
2023/11/04 09:54:17;;;;;;;7.07;1.93;;;;;;;7.62;100.00;98090.00;7392112;19;20439;-40
2023/11/04 09:56:47;;;;;;;4.80;1.30;;;;;;;7.57;100.00;98079.69;7369681;19;20423;-42
2023/11/04 09:59:17;;;;;;;2.77;1.10;;;;;;;7.68;100.00;98084.94;7391085;19;20411;-42
2023/11/04 10:01:46;;;;;;;5.50;1.50;;;;;;;7.74;100.00;98078.16;7369617;19;20480;-40
2023/11/04 10:04:16;;;;;;;4.60;1.60;;;;;;;7.80;100.00;98079.06;7390067;19;20450;-43
2023/11/04 10:06:49;;;;;;;6.13;1.40;;;;;;;7.84;100.00;98085.97;7372266;19;20427;-38
2023/11/04 10:09:23;;;;;;;8.20;1.53;;;;;;;7.92;100.00;98087.72;7396243;19;20947;-41
2023/11/04 10:11:53;;;;;;;3.20;0.97;;;;;;;7.89;100.00;98085.16;7375402;19;20451;-40
2023/11/04 10:14:23;;;;;;;7.40;1.90;;;;;;;7.92;100.00;98095.44;7398983;19;20452;-40
2023/11/04 10:16:53;;;;;;;3.40;1.03;;;;;;;7.91;100.00;98089.47;7376692;19;20990;-40
2023/11/04 10:19:23;;;;;;;4.80;2.10;;;;;;;7.97;100.00;98076.69;7390187;19;20407;-40
2023/11/04 10:21:53;;;;;;;3.80;1.00;;;;;;;8.03;100.00;98078.44;7365607;19;20447;-44
2023/11/04 10:24:25;;;;;;;2.20;0.97;;;;;;;8.08;100.00;98063.06;7390725;19;20443;-40
2023/11/04 10:26:55;;;;;;;3.17;1.10;;;;;;;8.15;100.00;98069.97;7368745;19;20892;-40
2023/11/04 10:29:24;;;;;;;9.10;1.47;;;;;;;8.16;100.00;98069.13;7390220;19;20411;-40
2023/11/04 10:31:55;;;;;;;2.60;0.80;;;;;;;8.20;100.00;98068.31;7367996;19;20841;-41
2023/11/04 10:34:29;;;;;;;2.17;0.70;;;;;;;8.21;100.00;98070.00;7391870;19;20502;-39
2023/11/04 10:36:59;;;;;;;3.67;1.43;;;;;;;8.31;100.00;98064.97;7365836;19;20443;-40
2023/11/04 10:39:50;;;;;;;4.87;1.30;;;;;;;8.45;100.00;98055.66;7368455;19;20396;-40
2023/11/04 10:42:22;;;;;;;2.90;1.07;;;;;;;8.44;100.00;98058.19;7388969;19;20411;-39
2023/11/04 10:44:54;;;;;;;4.40;1.07;;;;;;;8.53;100.00;98050.59;7368448;19;20428;-40
2023/11/04 10:47:31;;;;;;;6.10;1.30;;;;;;;8.71;100.00;98042.13;7388376;19;20443;-40
2023/11/04 10:50:08;;;;;;;4.63;1.40;;;;;;;8.89;100.00;98040.53;7369048;19;20696;-40
2023/11/04 10:52:40;;;;;;;2.80;1.03;;;;;;;8.99;100.00;98049.13;7385952;19;20420;-40
2023/11/04 10:55:14;;;;;;;8.30;1.60;;;;;;;9.09;100.00;98055.19;7368767;19;20470;-41
2023/11/04 10:57:46;;;;;;;3.20;1.20;;;;;;;9.22;100.00;98044.09;7386815;19;20412;-40
2023/11/04 11:00:19;;;;;;;3.63;1.10;;;;;;;9.22;100.00;98045.81;7369400;19;20427;-42
2023/11/04 11:02:51;;;;;;;4.53;1.10;;;;;;;9.14;100.00;98048.34;7390392;19;20391;-40
2023/11/04 11:05:25;;;;;;;5.47;1.40;;;;;;;9.09;100.00;98044.88;7366488;19;20433;-40
2023/11/04 11:07:55;;;;;;;6.10;1.20;;;;;;;9.41;100.00;98036.44;7387767;19;20419;-40
2023/11/04 11:10:32;;;;;;;8.03;2.27;;;;;;;9.47;100.00;98033.88;7365059;19;20479;-39
2023/11/04 11:13:06;;;;;;;2.50;1.10;;;;;;;9.67;100.00;98028.78;7390901;19;20500;-44
2023/11/04 11:15:36;;;;;;;3.03;0.87;;;;;;;9.59;100.00;98041.63;7367528;19;20436;-42
2023/11/04 11:18:07;;;;;;;4.13;1.03;;;;;;;9.56;100.00;98040.75;7386036;19;20426;-42
2023/11/04 11:20:38;;;;;;;2.60;0.83;;;;;;;9.38;100.00;98045.00;7366794;19;20439;-40
2023/11/04 11:23:08;;;;;;;2.90;1.10;;;;;;;9.21;100.00;98050.09;7390644;19;20416;-45
2023/11/04 11:25:43;;;;;;;4.00;1.37;;;;;;;9.27;100.00;98050.13;7367044;19;20483;-40
2023/11/04 11:28:20;;;;;;;5.40;1.67;;;;;;;9.20;100.00;98048.38;7388088;19;20407;-41
2023/11/04 11:30:57;;;;;;;2.73;1.10;;;;;;;9.27;100.00;98047.53;7366174;19;20433;-43
2023/11/04 11:33:29;;;;;;;2.53;1.00;;;;;;;9.17;100.00;98045.78;7390825;19;20399;-40
2023/11/04 11:36:02;;;;;;;2.90;1.13;;;;;;;9.23;100.00;98042.38;7365194;19;20498;-40
2023/11/04 11:38:33;;;;;;;3.20;1.13;;;;;;;9.27;100.00;98031.22;7387996;19;20396;-40
2023/11/04 11:41:10;;;;;;;3.20;1.20;;;;;;;9.38;100.00;98028.72;7365576;19;20421;-44
2023/11/04 11:43:40;;;;;;;7.90;1.67;;;;;;;9.34;100.00;98029.56;7387307;19;20422;-40
2023/11/04 11:46:09;;;;;;;3.40;1.40;;;;;;;9.19;100.00;98032.06;7366616;19;20771;-41
2023/11/04 11:48:40;;;;;;;2.50;0.70;;;;;;;9.21;100.00;98024.38;7387950;19;20780;-41